createdAt,value
2018-08-19T00:00:02.050Z,6.47
2018-08-19T00:02:06.205Z,5.87
2018-08-19T00:04:08.232Z,5.87
2018-08-19T00:06:10.232Z,5.60
2018-08-19T00:08:12.251Z,5.40
2018-08-19T00:10:14.273Z,5.13
2018-08-19T00:12:25.549Z,5.53
2018-08-19T00:14:30.304Z,5.33
2018-08-19T00:16:32.605Z,5.13
2018-08-19T00:18:34.689Z,5.20
2018-08-19T00:20:36.721Z,5.50
2018-08-19T00:22:38.773Z,5.30
2018-08-19T00:24:40.798Z,6.30
2018-08-19T00:26:42.817Z,5.40
2018-08-19T00:28:44.840Z,6.43
2018-08-19T00:30:46.888Z,6.07
2018-08-19T00:32:48.905Z,5.80
2018-08-19T00:34:50.925Z,5.90
2018-08-19T00:36:52.940Z,6.10
2018-08-19T00:38:55.770Z,5.47
2018-08-19T00:40:57.782Z,6.20
2018-08-19T00:42:59.832Z,6.57
2018-08-19T00:45:01.857Z,6.50
2018-08-19T00:47:03.869Z,7.60
2018-08-19T00:49:05.894Z,5.57
2018-08-19T00:51:07.938Z,6.00
2018-08-19T00:53:10.492Z,6.10
2018-08-19T00:55:12.536Z,6.20
2018-08-19T00:57:14.554Z,5.90
2018-08-19T00:59:16.589Z,6.70
2018-08-19T01:01:29.528Z,6.17
2018-08-19T01:03:41.928Z,7.27
2018-08-19T01:05:43.952Z,7.03
2018-08-19T01:07:46.004Z,7.30
2018-08-19T01:09:48.010Z,6.20
2018-08-19T01:11:50.042Z,6.33
2018-08-19T01:13:52.098Z,7.07
2018-08-19T01:15:54.116Z,6.40
2018-08-19T01:17:56.863Z,6.60
2018-08-19T01:20:04.762Z,6.90
2018-08-19T01:22:06.780Z,6.60
2018-08-19T01:24:09.636Z,8.13
2018-08-19T01:26:11.656Z,7.07
2018-08-19T01:28:13.721Z,6.00
2018-08-19T01:30:19.048Z,6.10
2018-08-19T01:32:21.084Z,7.03
2018-08-19T01:34:23.096Z,6.57
2018-08-19T01:36:25.285Z,6.50
2018-08-19T01:38:27.342Z,6.67
2018-08-19T01:40:29.364Z,7.20
2018-08-19T01:42:31.629Z,7.20
2018-08-19T01:44:33.696Z,7.43
2018-08-19T01:46:40.184Z,8.30
2018-08-19T01:48:42.187Z,7.60
2018-08-19T01:50:44.244Z,8.10
2018-08-19T01:52:47.585Z,7.20
2018-08-19T01:54:49.604Z,6.73
2018-08-19T01:56:54.557Z,7.23
2018-08-19T01:58:56.577Z,7.87
2018-08-19T02:00:58.604Z,7.27
2018-08-19T02:03:03.020Z,8.10
2018-08-19T02:05:05.632Z,8.13
2018-08-19T02:07:07.678Z,8.40
2018-08-19T02:09:11.429Z,7.10
2018-08-19T02:11:25.255Z,6.93
2018-08-19T02:13:27.280Z,6.93
2018-08-19T02:15:30.316Z,7.00
2018-08-19T02:17:36.244Z,6.23
2018-08-19T02:19:38.300Z,7.37
2018-08-19T02:21:41.129Z,6.37
2018-08-19T02:23:43.173Z,5.77
2018-08-19T02:25:46.381Z,5.10
2018-08-19T02:27:48.602Z,5.30
2018-08-19T02:29:50.678Z,6.77
2018-08-19T02:31:58.466Z,6.10
2018-08-19T02:34:00.503Z,7.30
2018-08-19T02:36:04.442Z,7.30
2018-08-19T02:38:06.487Z,7.40
2018-08-19T02:40:10.961Z,7.63
2018-08-19T02:42:24.617Z,8.40
2018-08-19T02:44:26.644Z,8.80
2018-08-19T02:46:28.754Z,9.63
2018-08-19T02:48:44.263Z,8.57
2018-08-19T02:50:46.306Z,8.80
2018-08-19T02:52:48.345Z,10.17
2018-08-19T02:54:50.386Z,8.33
2018-08-19T02:56:52.415Z,10.03
2018-08-19T02:58:54.461Z,8.10
2018-08-19T03:00:56.503Z,8.17
2018-08-19T03:02:58.576Z,9.20
2018-08-19T03:05:02.809Z,9.13
2018-08-19T03:07:04.868Z,7.33
2018-08-19T03:09:10.057Z,7.93
2018-08-19T03:11:12.466Z,8.23
2018-08-19T03:13:14.502Z,9.57
2018-08-19T03:15:16.644Z,9.17
2018-08-19T03:17:18.636Z,9.10
2018-08-19T03:19:20.673Z,9.07
2018-08-19T03:21:22.688Z,9.50
2018-08-19T03:23:24.716Z,9.80
2018-08-19T03:25:27.457Z,8.70
2018-08-19T03:27:29.585Z,9.20
2018-08-19T03:29:32.301Z,9.13
2018-08-19T03:31:34.347Z,9.53
2018-08-19T03:33:36.368Z,8.67
2018-08-19T03:35:38.394Z,9.13
2018-08-19T03:37:40.454Z,7.87
2018-08-19T03:39:42.879Z,9.37
2018-08-19T03:41:45.449Z,9.13
2018-08-19T03:43:53.081Z,9.73
2018-08-19T03:45:55.150Z,9.93
2018-08-19T03:47:57.194Z,9.10
2018-08-19T03:49:59.918Z,9.37
2018-08-19T03:52:01.944Z,9.33
2018-08-19T03:54:03.989Z,8.40
2018-08-19T14:09:38.484Z,7.03
2018-08-19T14:11:40.773Z,8.10
2018-08-19T14:13:44.453Z,8.10
2018-08-19T14:15:50.857Z,8.00
2018-08-19T14:17:54.646Z,6.93
2018-08-19T14:20:00.731Z,8.40
2018-08-19T14:22:02.810Z,7.87
2018-08-19T14:24:04.881Z,7.90
2018-08-19T14:26:09.358Z,8.73
2018-08-19T14:28:13.493Z,7.40
2018-08-19T14:30:15.654Z,8.23
2018-08-19T14:32:29.953Z,8.50
2018-08-19T14:34:33.055Z,7.70
2018-08-19T14:36:35.529Z,7.97
2018-08-19T14:38:38.569Z,8.20
2018-08-19T14:40:42.009Z,7.60
2018-08-19T14:42:44.814Z,8.10
2018-08-19T14:44:53.074Z,7.90
2018-08-19T14:46:55.137Z,7.50
2018-08-19T14:49:02.533Z,7.80
2018-08-19T14:51:09.058Z,7.93
2018-08-19T14:53:13.300Z,8.13
2018-08-19T14:55:15.361Z,7.77
2018-08-19T14:57:17.434Z,8.37
2018-08-19T14:59:19.521Z,8.60
2018-08-19T15:01:23.772Z,7.50
2018-08-19T15:03:25.831Z,7.37
2018-08-19T15:05:32.309Z,8.80
2018-08-19T15:07:36.722Z,8.37
2018-08-19T15:09:41.066Z,8.03
2018-08-19T15:11:46.404Z,9.37
2018-08-19T15:13:54.476Z,8.30
2018-08-19T15:16:00.619Z,7.47
2018-08-19T15:18:07.950Z,8.90
2018-08-19T15:22:27.289Z,8.73
2018-08-19T15:24:29.404Z,8.67
2018-08-19T15:26:32.158Z,9.13
2018-08-19T15:28:38.205Z,8.67
2018-08-19T15:30:40.873Z,7.67
2018-08-19T15:32:46.319Z,7.90
2018-08-19T15:34:49.875Z,8.77
2018-08-19T15:36:54.401Z,9.13
2018-08-19T15:39:01.946Z,8.73
2018-08-19T15:41:09.873Z,8.60
2018-08-19T15:43:18.127Z,8.40
2018-08-19T15:45:22.299Z,9.20
2018-08-19T15:47:24.393Z,9.30
2018-08-19T15:49:27.714Z,9.33
2018-08-19T15:51:33.239Z,8.90
2018-08-19T15:53:41.631Z,8.90
2018-08-19T16:03:44.373Z,9.60
2018-08-19T16:05:46.532Z,8.53
2018-08-19T16:07:50.580Z,9.30
2018-08-19T16:09:55.748Z,8.70
2018-08-19T18:10:56.722Z,10.67
2018-08-19T18:12:58.777Z,9.87
2018-08-19T18:15:00.910Z,10.17
2018-08-19T18:17:03.099Z,11.30
2018-08-19T18:19:05.789Z,10.50
2018-08-19T18:21:07.965Z,9.63
2018-08-19T18:23:17.617Z,10.17
2018-08-19T18:25:19.717Z,10.27
2018-08-19T18:27:21.772Z,11.17
2018-08-19T18:29:23.845Z,10.40
2018-08-19T18:31:26.006Z,10.00
2018-08-19T18:33:28.829Z,8.90
2018-08-19T18:35:30.929Z,10.87
2018-08-19T18:37:33.317Z,9.73
2018-08-19T18:39:35.446Z,9.50
2018-08-19T18:41:41.229Z,9.60
2018-08-19T18:43:43.308Z,9.70
2018-08-19T18:45:45.562Z,9.93
2018-08-19T18:47:54.345Z,9.93
2018-08-19T18:49:56.437Z,9.53
2018-08-19T18:52:03.219Z,10.67
2018-08-19T18:54:06.091Z,10.80
2018-08-19T18:56:08.420Z,9.73
2018-08-19T18:58:10.665Z,9.47
2018-08-19T19:00:12.845Z,10.47
2018-08-19T19:02:15.079Z,9.77
2018-08-19T19:04:17.182Z,10.50
2018-08-19T19:06:19.405Z,10.80
2018-08-19T19:08:21.862Z,10.00
2018-08-19T19:10:23.953Z,10.30
2018-08-19T19:12:26.144Z,10.47
2018-08-19T19:14:29.059Z,10.40
2018-08-19T19:16:35.924Z,9.77
2018-08-19T19:18:38.153Z,10.23
2018-08-19T19:20:46.373Z,10.30
2018-08-19T19:22:54.117Z,10.57
2018-08-19T19:24:56.329Z,10.30
2018-08-19T19:26:58.730Z,10.57
2018-08-19T19:29:00.966Z,9.73
2018-08-19T19:31:08.873Z,11.03
2018-08-19T19:33:11.717Z,9.97
2018-08-19T19:35:17.989Z,10.10
2018-08-19T19:37:20.545Z,9.80
2018-08-19T19:39:25.686Z,10.23
2018-08-19T19:41:30.656Z,10.00
2018-08-19T19:43:36.702Z,10.63
2018-08-19T19:45:45.260Z,12.27
2018-08-19T19:47:47.428Z,11.17
2018-08-19T19:49:55.360Z,10.90
2018-08-19T19:51:59.944Z,11.07
2018-08-19T19:54:02.134Z,11.03
2018-08-19T19:56:08.652Z,10.80
2018-08-19T19:58:10.989Z,10.17
2018-08-19T20:00:13.138Z,10.50
2018-08-19T20:02:21.762Z,10.27
2018-08-19T20:04:24.092Z,10.20
2018-08-19T20:06:26.432Z,10.40
2018-08-19T20:08:28.742Z,12.30
2018-08-19T20:10:31.057Z,11.23
2018-08-19T20:12:33.340Z,11.63
2018-08-19T20:14:40.355Z,11.17
2018-08-19T20:16:42.647Z,11.20
2018-08-19T20:18:44.820Z,9.93
2018-08-19T20:20:47.159Z,10.73
2018-08-19T20:22:50.685Z,11.70
2018-08-19T20:24:53.231Z,12.37
2018-08-19T20:26:56.881Z,11.20
2018-08-19T20:29:01.706Z,11.17
2018-08-19T20:31:04.294Z,10.57
2018-08-19T20:33:14.614Z,11.03
2018-08-19T20:35:17.203Z,11.30
2018-08-19T20:37:22.334Z,10.90
2018-08-19T20:39:24.777Z,11.97
2018-08-19T20:41:27.397Z,13.00
2018-08-19T20:43:30.598Z,11.10
2018-08-19T20:45:33.566Z,10.50
2018-08-19T20:47:36.124Z,11.00
2018-08-19T20:49:38.644Z,10.87
2018-08-19T20:51:41.349Z,11.80
2018-08-19T20:53:46.679Z,11.70
2018-08-19T20:55:49.347Z,11.67
2018-08-19T20:57:55.590Z,11.37
2018-08-19T20:59:58.087Z,11.03
2018-08-19T21:02:00.655Z,11.37
2018-08-19T21:04:03.128Z,11.23
2018-08-19T21:06:05.706Z,11.27
2018-08-19T21:08:11.083Z,11.03
2018-08-19T21:10:13.610Z,11.23
2018-08-19T21:12:16.050Z,12.27
2018-08-19T21:14:18.487Z,11.53
2018-08-19T21:16:20.981Z,11.90
2018-08-19T21:18:23.378Z,12.47
2018-08-19T21:20:25.968Z,12.23
2018-08-19T21:22:28.434Z,12.67
2018-08-19T21:24:59.917Z,12.60
2018-08-19T21:27:02.779Z,13.50
2018-08-19T21:29:05.356Z,12.83
2018-08-19T21:31:07.913Z,13.57
2018-08-19T21:33:10.309Z,12.07
2018-08-19T21:35:12.923Z,12.70
2018-08-19T21:37:19.801Z,13.20
2018-08-19T21:39:22.579Z,12.70
2018-08-19T21:41:41.198Z,12.10
2018-08-19T21:43:43.720Z,12.10
2018-08-19T21:45:46.280Z,12.30
2018-08-19T21:47:48.724Z,13.20
2018-08-19T21:49:55.759Z,12.63
2018-08-19T21:51:58.141Z,11.53
2018-08-19T21:54:00.788Z,12.97
2018-08-19T21:56:03.357Z,12.67
2018-08-19T21:58:06.090Z,11.90
2018-08-19T22:00:08.889Z,11.60
2018-08-19T22:04:20.392Z,12.30
2018-08-19T22:06:22.932Z,12.00
2018-08-19T22:08:25.819Z,12.37
2018-08-19T22:10:28.370Z,13.60
2018-08-19T22:12:30.874Z,11.90
2018-08-19T22:14:33.448Z,12.80
